sensor_id;sensor_type;location;lat;lon;timestamp;P1;durP1;ratioP1;P2;durP2;ratioP2
32094;SDS011;18608;53.688;10.748;2023-05-07T00:01:43;15.23;;;11.13;;
32094;SDS011;18608;53.688;10.748;2023-05-07T00:04:09;15.87;;;11.37;;
32094;SDS011;18608;53.688;10.748;2023-05-07T00:06:35;17.53;;;11.90;;
32094;SDS011;18608;53.688;10.748;2023-05-07T00:09:02;21.70;;;13.03;;
32094;SDS011;18608;53.688;10.748;2023-05-07T00:11:29;20.53;;;13.13;;
32094;SDS011;18608;53.688;10.748;2023-05-07T00:13:55;17.73;;;11.97;;
32094;SDS011;18608;53.688;10.748;2023-05-07T00:16:21;20.80;;;11.10;;
32094;SDS011;18608;53.688;10.748;2023-05-07T00:18:47;17.10;;;11.97;;
32094;SDS011;18608;53.688;10.748;2023-05-07T00:21:13;17.23;;;11.30;;
32094;SDS011;18608;53.688;10.748;2023-05-07T00:23:39;21.90;;;13.63;;
32094;SDS011;18608;53.688;10.748;2023-05-07T00:26:05;18.37;;;11.50;;
32094;SDS011;18608;53.688;10.748;2023-05-07T00:28:31;18.83;;;13.40;;
32094;SDS011;18608;53.688;10.748;2023-05-07T00:30:57;21.00;;;13.60;;
32094;SDS011;18608;53.688;10.748;2023-05-07T00:33:23;27.80;;;13.07;;
32094;SDS011;18608;53.688;10.748;2023-05-07T00:35:51;22.67;;;14.07;;
32094;SDS011;18608;53.688;10.748;2023-05-07T00:38:17;23.70;;;12.23;;
32094;SDS011;18608;53.688;10.748;2023-05-07T00:40:43;20.47;;;13.83;;
32094;SDS011;18608;53.688;10.748;2023-05-07T00:43:10;18.43;;;12.87;;
32094;SDS011;18608;53.688;10.748;2023-05-07T00:45:36;28.90;;;14.40;;
32094;SDS011;18608;53.688;10.748;2023-05-07T00:48:02;17.63;;;12.50;;
32094;SDS011;18608;53.688;10.748;2023-05-07T00:50:28;17.77;;;12.47;;
32094;SDS011;18608;53.688;10.748;2023-05-07T00:52:54;20.27;;;13.40;;
32094;SDS011;18608;53.688;10.748;2023-05-07T00:55:21;18.37;;;13.60;;
32094;SDS011;18608;53.688;10.748;2023-05-07T00:57:47;20.03;;;13.20;;
32094;SDS011;18608;53.688;10.748;2023-05-07T01:00:14;19.40;;;13.57;;
32094;SDS011;18608;53.688;10.748;2023-05-07T01:02:41;18.93;;;13.77;;
32094;SDS011;18608;53.688;10.748;2023-05-07T01:05:14;20.10;;;13.20;;
32094;SDS011;18608;53.688;10.748;2023-05-07T01:07:41;25.43;;;14.00;;
32094;SDS011;18608;53.688;10.748;2023-05-07T01:10:08;22.30;;;13.90;;
32094;SDS011;18608;53.688;10.748;2023-05-07T01:12:35;23.87;;;14.80;;
32094;SDS011;18608;53.688;10.748;2023-05-07T01:15:03;22.87;;;14.90;;
32094;SDS011;18608;53.688;10.748;2023-05-07T01:17:33;25.33;;;15.43;;
32094;SDS011;18608;53.688;10.748;2023-05-07T01:20:05;22.67;;;14.03;;
32094;SDS011;18608;53.688;10.748;2023-05-07T01:22:32;20.10;;;14.40;;
32094;SDS011;18608;53.688;10.748;2023-05-07T01:25:02;23.70;;;15.60;;
32094;SDS011;18608;53.688;10.748;2023-05-07T01:27:29;27.10;;;14.87;;
32094;SDS011;18608;53.688;10.748;2023-05-07T01:29:55;21.43;;;14.10;;
32094;SDS011;18608;53.688;10.748;2023-05-07T01:32:23;23.93;;;16.10;;
32094;SDS011;18608;53.688;10.748;2023-05-07T01:34:58;24.40;;;15.30;;
32094;SDS011;18608;53.688;10.748;2023-05-07T01:37:26;20.80;;;13.67;;
32094;SDS011;18608;53.688;10.748;2023-05-07T01:39:52;20.70;;;13.70;;
32094;SDS011;18608;53.688;10.748;2023-05-07T01:42:19;22.53;;;14.33;;
32094;SDS011;18608;53.688;10.748;2023-05-07T01:44:45;19.93;;;13.50;;
32094;SDS011;18608;53.688;10.748;2023-05-07T01:47:11;17.40;;;12.03;;
32094;SDS011;18608;53.688;10.748;2023-05-07T01:49:38;19.93;;;13.10;;
32094;SDS011;18608;53.688;10.748;2023-05-07T01:52:05;21.07;;;12.60;;
32094;SDS011;18608;53.688;10.748;2023-05-07T01:54:31;18.87;;;13.70;;
32094;SDS011;18608;53.688;10.748;2023-05-07T01:56:57;20.63;;;12.90;;
32094;SDS011;18608;53.688;10.748;2023-05-07T01:59:23;21.23;;;12.50;;
32094;SDS011;18608;53.688;10.748;2023-05-07T02:01:49;19.33;;;12.93;;
32094;SDS011;18608;53.688;10.748;2023-05-07T02:04:15;24.70;;;11.60;;
32094;SDS011;18608;53.688;10.748;2023-05-07T02:06:41;20.27;;;12.23;;
32094;SDS011;18608;53.688;10.748;2023-05-07T02:09:07;24.23;;;11.27;;
32094;SDS011;18608;53.688;10.748;2023-05-07T02:11:33;17.63;;;10.20;;
32094;SDS011;18608;53.688;10.748;2023-05-07T02:14:00;17.00;;;11.20;;
32094;SDS011;18608;53.688;10.748;2023-05-07T02:16:26;12.17;;;9.73;;
32094;SDS011;18608;53.688;10.748;2023-05-07T02:18:51;15.90;;;10.10;;
32094;SDS011;18608;53.688;10.748;2023-05-07T02:21:17;11.93;;;9.20;;
32094;SDS011;18608;53.688;10.748;2023-05-07T02:23:43;14.50;;;9.43;;
32094;SDS011;18608;53.688;10.748;2023-05-07T02:26:10;13.70;;;8.33;;
32094;SDS011;18608;53.688;10.748;2023-05-07T02:28:36;13.00;;;8.90;;
32094;SDS011;18608;53.688;10.748;2023-05-07T02:31:02;11.50;;;8.07;;
32094;SDS011;18608;53.688;10.748;2023-05-07T02:33:28;12.23;;;7.57;;
32094;SDS011;18608;53.688;10.748;2023-05-07T02:35:55;11.60;;;7.30;;
32094;SDS011;18608;53.688;10.748;2023-05-07T02:38:21;9.20;;;7.53;;
32094;SDS011;18608;53.688;10.748;2023-05-07T02:40:47;10.70;;;7.70;;
32094;SDS011;18608;53.688;10.748;2023-05-07T02:43:13;10.50;;;7.97;;
32094;SDS011;18608;53.688;10.748;2023-05-07T02:45:39;11.30;;;8.03;;
32094;SDS011;18608;53.688;10.748;2023-05-07T02:48:05;10.40;;;7.43;;
32094;SDS011;18608;53.688;10.748;2023-05-07T02:50:32;12.03;;;9.23;;
32094;SDS011;18608;53.688;10.748;2023-05-07T02:52:58;8.80;;;6.90;;
32094;SDS011;18608;53.688;10.748;2023-05-07T02:55:24;11.60;;;8.00;;
32094;SDS011;18608;53.688;10.748;2023-05-07T02:57:50;8.93;;;7.00;;
32094;SDS011;18608;53.688;10.748;2023-05-07T03:00:17;10.23;;;7.63;;
32094;SDS011;18608;53.688;10.748;2023-05-07T03:02:46;15.93;;;9.10;;
32094;SDS011;18608;53.688;10.748;2023-05-07T03:05:12;15.67;;;9.20;;
32094;SDS011;18608;53.688;10.748;2023-05-07T03:07:39;10.80;;;7.90;;
32094;SDS011;18608;53.688;10.748;2023-05-07T03:10:09;11.63;;;8.30;;
32094;SDS011;18608;53.688;10.748;2023-05-07T03:12:35;14.43;;;8.57;;
32094;SDS011;18608;53.688;10.748;2023-05-07T03:15:01;17.90;;;9.07;;
32094;SDS011;18608;53.688;10.748;2023-05-07T03:17:27;16.50;;;8.40;;
32094;SDS011;18608;53.688;10.748;2023-05-07T03:19:52;11.10;;;8.00;;
32094;SDS011;18608;53.688;10.748;2023-05-07T03:22:18;13.50;;;8.57;;
32094;SDS011;18608;53.688;10.748;2023-05-07T03:24:45;10.93;;;8.93;;
32094;SDS011;18608;53.688;10.748;2023-05-07T03:27:10;10.30;;;7.93;;
32094;SDS011;18608;53.688;10.748;2023-05-07T03:29:36;10.47;;;7.50;;
32094;SDS011;18608;53.688;10.748;2023-05-07T03:32:02;14.20;;;9.70;;
32094;SDS011;18608;53.688;10.748;2023-05-07T03:34:28;13.07;;;8.27;;
32094;SDS011;18608;53.688;10.748;2023-05-07T03:36:55;12.57;;;9.00;;
32094;SDS011;18608;53.688;10.748;2023-05-07T03:39:21;9.83;;;7.63;;
32094;SDS011;18608;53.688;10.748;2023-05-07T03:41:47;13.17;;;9.03;;
32094;SDS011;18608;53.688;10.748;2023-05-07T03:44:13;13.90;;;9.10;;
32094;SDS011;18608;53.688;10.748;2023-05-07T03:46:39;9.73;;;7.97;;
32094;SDS011;18608;53.688;10.748;2023-05-07T03:49:05;10.60;;;7.30;;
32094;SDS011;18608;53.688;10.748;2023-05-07T03:51:31;13.43;;;9.23;;
32094;SDS011;18608;53.688;10.748;2023-05-07T03:53:57;11.67;;;9.13;;
32094;SDS011;18608;53.688;10.748;2023-05-07T03:56:23;10.40;;;8.43;;
32094;SDS011;18608;53.688;10.748;2023-05-07T03:58:51;13.27;;;9.47;;
32094;SDS011;18608;53.688;10.748;2023-05-07T04:01:17;13.23;;;9.73;;
32094;SDS011;18608;53.688;10.748;2023-05-07T04:03:43;15.10;;;9.73;;
32094;SDS011;18608;53.688;10.748;2023-05-07T04:06:09;10.77;;;8.47;;
32094;SDS011;18608;53.688;10.748;2023-05-07T04:08:35;16.17;;;8.80;;
32094;SDS011;18608;53.688;10.748;2023-05-07T04:11:02;11.23;;;8.93;;
32094;SDS011;18608;53.688;10.748;2023-05-07T04:13:27;13.80;;;10.23;;
32094;SDS011;18608;53.688;10.748;2023-05-07T04:15:55;11.10;;;9.33;;
32094;SDS011;18608;53.688;10.748;2023-05-07T04:18:21;14.30;;;9.70;;
32094;SDS011;18608;53.688;10.748;2023-05-07T04:20:47;13.30;;;9.47;;
32094;SDS011;18608;53.688;10.748;2023-05-07T04:23:14;14.03;;;9.53;;
32094;SDS011;18608;53.688;10.748;2023-05-07T04:25:40;13.93;;;9.60;;
32094;SDS011;18608;53.688;10.748;2023-05-07T04:28:06;12.93;;;9.90;;
32094;SDS011;18608;53.688;10.748;2023-05-07T04:30:32;14.13;;;9.87;;
32094;SDS011;18608;53.688;10.748;2023-05-07T04:32:58;11.83;;;8.80;;
32094;SDS011;18608;53.688;10.748;2023-05-07T04:35:24;13.57;;;9.13;;
32094;SDS011;18608;53.688;10.748;2023-05-07T04:37:50;10.73;;;8.00;;
32094;SDS011;18608;53.688;10.748;2023-05-07T04:40:16;15.33;;;9.93;;
32094;SDS011;18608;53.688;10.748;2023-05-07T04:42:42;14.67;;;9.67;;
32094;SDS011;18608;53.688;10.748;2023-05-07T04:45:08;9.37;;;7.53;;
32094;SDS011;18608;53.688;10.748;2023-05-07T04:47:35;10.00;;;8.60;;
32094;SDS011;18608;53.688;10.748;2023-05-07T04:50:01;13.70;;;8.23;;
32094;SDS011;18608;53.688;10.748;2023-05-07T04:52:27;15.07;;;8.80;;
32094;SDS011;18608;53.688;10.748;2023-05-07T04:54:53;9.77;;;7.60;;
32094;SDS011;18608;53.688;10.748;2023-05-07T04:57:19;11.07;;;7.60;;
32094;SDS011;18608;53.688;10.748;2023-05-07T04:59:45;13.20;;;9.37;;
32094;SDS011;18608;53.688;10.748;2023-05-07T05:02:11;12.00;;;9.50;;
32094;SDS011;18608;53.688;10.748;2023-05-07T05:04:37;13.83;;;9.10;;
32094;SDS011;18608;53.688;10.748;2023-05-07T05:07:03;10.00;;;7.67;;
32094;SDS011;18608;53.688;10.748;2023-05-07T05:09:29;15.17;;;8.17;;
32094;SDS011;18608;53.688;10.748;2023-05-07T05:11:55;11.60;;;9.43;;
32094;SDS011;18608;53.688;10.748;2023-05-07T05:14:21;12.67;;;8.87;;
32094;SDS011;18608;53.688;10.748;2023-05-07T05:16:47;8.33;;;7.33;;
32094;SDS011;18608;53.688;10.748;2023-05-07T05:19:13;9.77;;;7.63;;
32094;SDS011;18608;53.688;10.748;2023-05-07T05:21:39;10.80;;;7.27;;
32094;SDS011;18608;53.688;10.748;2023-05-07T05:24:05;11.67;;;8.43;;
32094;SDS011;18608;53.688;10.748;2023-05-07T05:26:31;11.20;;;7.87;;
32094;SDS011;18608;53.688;10.748;2023-05-07T05:28:57;10.20;;;8.13;;
32094;SDS011;18608;53.688;10.748;2023-05-07T05:31:23;13.33;;;8.57;;
32094;SDS011;18608;53.688;10.748;2023-05-07T05:33:49;11.70;;;8.33;;
32094;SDS011;18608;53.688;10.748;2023-05-07T05:36:15;12.00;;;8.63;;
32094;SDS011;18608;53.688;10.748;2023-05-07T05:38:41;10.50;;;8.20;;
32094;SDS011;18608;53.688;10.748;2023-05-07T05:41:07;11.30;;;8.13;;
32094;SDS011;18608;53.688;10.748;2023-05-07T05:43:33;11.87;;;8.00;;
32094;SDS011;18608;53.688;10.748;2023-05-07T05:45:59;9.40;;;7.70;;
32094;SDS011;18608;53.688;10.748;2023-05-07T05:48:25;10.83;;;7.67;;
32094;SDS011;18608;53.688;10.748;2023-05-07T05:50:51;9.10;;;7.10;;
32094;SDS011;18608;53.688;10.748;2023-05-07T05:53:17;13.23;;;7.10;;
32094;SDS011;18608;53.688;10.748;2023-05-07T05:55:44;10.30;;;6.00;;
32094;SDS011;18608;53.688;10.748;2023-05-07T05:58:10;9.10;;;7.73;;
32094;SDS011;18608;53.688;10.748;2023-05-07T06:00:36;6.67;;;5.77;;
32094;SDS011;18608;53.688;10.748;2023-05-07T06:03:02;11.73;;;6.90;;
32094;SDS011;18608;53.688;10.748;2023-05-07T06:05:28;7.83;;;7.10;;
32094;SDS011;18608;53.688;10.748;2023-05-07T06:07:54;9.90;;;6.33;;
32094;SDS011;18608;53.688;10.748;2023-05-07T06:10:20;16.13;;;9.83;;
32094;SDS011;18608;53.688;10.748;2023-05-07T06:12:46;8.60;;;7.33;;
32094;SDS011;18608;53.688;10.748;2023-05-07T06:15:12;9.07;;;7.00;;
32094;SDS011;18608;53.688;10.748;2023-05-07T06:17:38;16.50;;;7.90;;
32094;SDS011;18608;53.688;10.748;2023-05-07T06:20:04;10.67;;;7.40;;
32094;SDS011;18608;53.688;10.748;2023-05-07T06:22:30;8.27;;;6.07;;
32094;SDS011;18608;53.688;10.748;2023-05-07T06:24:56;10.77;;;7.43;;
32094;SDS011;18608;53.688;10.748;2023-05-07T06:27:22;9.50;;;6.40;;
32094;SDS011;18608;53.688;10.748;2023-05-07T06:29:48;9.70;;;6.60;;
32094;SDS011;18608;53.688;10.748;2023-05-07T06:32:14;9.17;;;8.17;;
32094;SDS011;18608;53.688;10.748;2023-05-07T06:34:42;7.20;;;5.90;;
32094;SDS011;18608;53.688;10.748;2023-05-07T06:37:08;6.17;;;5.67;;
32094;SDS011;18608;53.688;10.748;2023-05-07T06:39:34;8.00;;;6.60;;
32094;SDS011;18608;53.688;10.748;2023-05-07T06:42:00;6.43;;;5.30;;
32094;SDS011;18608;53.688;10.748;2023-05-07T06:44:27;7.50;;;6.40;;
32094;SDS011;18608;53.688;10.748;2023-05-07T06:46:53;10.10;;;6.87;;
32094;SDS011;18608;53.688;10.748;2023-05-07T06:49:19;7.40;;;6.07;;
32094;SDS011;18608;53.688;10.748;2023-05-07T06:51:45;8.90;;;6.30;;
32094;SDS011;18608;53.688;10.748;2023-05-07T06:54:11;8.33;;;5.90;;
32094;SDS011;18608;53.688;10.748;2023-05-07T06:56:37;9.53;;;6.30;;
32094;SDS011;18608;53.688;10.748;2023-05-07T06:59:03;8.30;;;5.97;;
32094;SDS011;18608;53.688;10.748;2023-05-07T07:01:29;8.40;;;6.53;;
32094;SDS011;18608;53.688;10.748;2023-05-07T07:03:55;9.37;;;6.80;;
32094;SDS011;18608;53.688;10.748;2023-05-07T07:06:21;7.30;;;6.60;;
32094;SDS011;18608;53.688;10.748;2023-05-07T07:08:47;8.57;;;6.33;;
32094;SDS011;18608;53.688;10.748;2023-05-07T07:11:13;8.07;;;6.10;;
32094;SDS011;18608;53.688;10.748;2023-05-07T07:13:39;7.83;;;5.70;;
32094;SDS011;18608;53.688;10.748;2023-05-07T07:16:05;7.97;;;5.77;;
32094;SDS011;18608;53.688;10.748;2023-05-07T07:18:31;9.40;;;7.30;;
32094;SDS011;18608;53.688;10.748;2023-05-07T07:20:57;10.20;;;8.20;;
32094;SDS011;18608;53.688;10.748;2023-05-07T07:23:23;8.33;;;7.53;;
32094;SDS011;18608;53.688;10.748;2023-05-07T07:25:50;10.93;;;9.77;;
32094;SDS011;18608;53.688;10.748;2023-05-07T07:28:16;9.70;;;6.40;;
32094;SDS011;18608;53.688;10.748;2023-05-07T07:30:42;9.27;;;8.07;;
32094;SDS011;18608;53.688;10.748;2023-05-07T07:33:09;14.00;;;12.50;;
32094;SDS011;18608;53.688;10.748;2023-05-07T07:35:35;9.73;;;7.93;;
32094;SDS011;18608;53.688;10.748;2023-05-07T07:38:01;8.50;;;7.10;;
32094;SDS011;18608;53.688;10.748;2023-05-07T07:40:27;13.67;;;7.40;;
32094;SDS011;18608;53.688;10.748;2023-05-07T07:42:53;7.27;;;6.57;;
32094;SDS011;18608;53.688;10.748;2023-05-07T07:45:19;8.27;;;6.97;;
32094;SDS011;18608;53.688;10.748;2023-05-07T07:47:45;9.67;;;7.03;;
32094;SDS011;18608;53.688;10.748;2023-05-07T07:50:11;9.50;;;7.60;;
32094;SDS011;18608;53.688;10.748;2023-05-07T07:52:37;11.13;;;7.07;;
32094;SDS011;18608;53.688;10.748;2023-05-07T07:55:04;10.23;;;7.83;;
32094;SDS011;18608;53.688;10.748;2023-05-07T07:57:30;6.87;;;6.17;;
32094;SDS011;18608;53.688;10.748;2023-05-07T07:59:56;9.60;;;7.10;;
32094;SDS011;18608;53.688;10.748;2023-05-07T08:02:22;9.33;;;6.40;;
32094;SDS011;18608;53.688;10.748;2023-05-07T08:04:48;13.80;;;7.27;;
32094;SDS011;18608;53.688;10.748;2023-05-07T08:07:14;8.27;;;6.13;;
32094;SDS011;18608;53.688;10.748;2023-05-07T08:09:40;7.77;;;7.00;;
32094;SDS011;18608;53.688;10.748;2023-05-07T08:12:06;12.93;;;6.70;;
32094;SDS011;18608;53.688;10.748;2023-05-07T08:14:33;7.13;;;6.43;;
32094;SDS011;18608;53.688;10.748;2023-05-07T08:16:59;6.33;;;5.63;;
32094;SDS011;18608;53.688;10.748;2023-05-07T08:19:25;7.50;;;6.30;;
32094;SDS011;18608;53.688;10.748;2023-05-07T08:21:51;9.77;;;6.60;;
32094;SDS011;18608;53.688;10.748;2023-05-07T08:24:17;8.40;;;7.53;;
32094;SDS011;18608;53.688;10.748;2023-05-07T08:26:43;9.77;;;7.10;;
32094;SDS011;18608;53.688;10.748;2023-05-07T08:29:10;7.27;;;6.33;;
32094;SDS011;18608;53.688;10.748;2023-05-07T08:31:35;7.90;;;6.20;;
32094;SDS011;18608;53.688;10.748;2023-05-07T08:34:03;7.87;;;5.93;;
32094;SDS011;18608;53.688;10.748;2023-05-07T08:36:30;9.17;;;7.63;;
32094;SDS011;18608;53.688;10.748;2023-05-07T08:38:56;11.83;;;7.13;;
32094;SDS011;18608;53.688;10.748;2023-05-07T08:41:22;9.07;;;6.73;;
32094;SDS011;18608;53.688;10.748;2023-05-07T08:43:48;8.37;;;5.83;;
32094;SDS011;18608;53.688;10.748;2023-05-07T08:46:18;6.83;;;6.13;;
32094;SDS011;18608;53.688;10.748;2023-05-07T08:48:48;5.93;;;5.43;;
32094;SDS011;18608;53.688;10.748;2023-05-07T08:51:18;12.30;;;5.17;;
32094;SDS011;18608;53.688;10.748;2023-05-07T08:53:45;12.33;;;6.70;;
32094;SDS011;18608;53.688;10.748;2023-05-07T08:56:13;8.43;;;5.80;;
32094;SDS011;18608;53.688;10.748;2023-05-07T08:58:40;6.00;;;5.43;;
32094;SDS011;18608;53.688;10.748;2023-05-07T09:01:10;6.50;;;5.90;;
32094;SDS011;18608;53.688;10.748;2023-05-07T09:03:43;5.27;;;4.20;;
32094;SDS011;18608;53.688;10.748;2023-05-07T09:06:10;9.20;;;5.43;;
32094;SDS011;18608;53.688;10.748;2023-05-07T09:08:36;5.77;;;5.30;;
32094;SDS011;18608;53.688;10.748;2023-05-07T09:11:02;5.70;;;5.20;;
32094;SDS011;18608;53.688;10.748;2023-05-07T09:13:28;7.10;;;5.80;;
32094;SDS011;18608;53.688;10.748;2023-05-07T09:15:55;6.37;;;4.83;;
32094;SDS011;18608;53.688;10.748;2023-05-07T09:18:21;5.07;;;4.60;;
32094;SDS011;18608;53.688;10.748;2023-05-07T09:20:49;6.20;;;4.60;;
32094;SDS011;18608;53.688;10.748;2023-05-07T09:23:15;9.80;;;5.87;;
32094;SDS011;18608;53.688;10.748;2023-05-07T09:25:41;5.63;;;4.50;;
32094;SDS011;18608;53.688;10.748;2023-05-07T09:28:07;4.30;;;4.00;;
32094;SDS011;18608;53.688;10.748;2023-05-07T09:30:35;4.87;;;4.47;;
32094;SDS011;18608;53.688;10.748;2023-05-07T09:33:01;6.20;;;4.07;;
32094;SDS011;18608;53.688;10.748;2023-05-07T09:35:29;4.30;;;3.97;;
32094;SDS011;18608;53.688;10.748;2023-05-07T09:37:55;5.07;;;4.40;;
32094;SDS011;18608;53.688;10.748;2023-05-07T09:40:23;5.23;;;4.40;;
32094;SDS011;18608;53.688;10.748;2023-05-07T09:42:50;4.97;;;4.57;;
32094;SDS011;18608;53.688;10.748;2023-05-07T09:45:21;5.80;;;4.73;;
32094;SDS011;18608;53.688;10.748;2023-05-07T09:47:52;3.70;;;3.40;;
32094;SDS011;18608;53.688;10.748;2023-05-07T09:50:28;4.37;;;4.07;;
32094;SDS011;18608;53.688;10.748;2023-05-07T09:52:55;3.83;;;3.53;;
32094;SDS011;18608;53.688;10.748;2023-05-07T09:55:22;3.70;;;3.40;;
32094;SDS011;18608;53.688;10.748;2023-05-07T09:57:50;3.80;;;3.40;;
32094;SDS011;18608;53.688;10.748;2023-05-07T10:00:18;6.50;;;3.90;;
32094;SDS011;18608;53.688;10.748;2023-05-07T10:02:45;6.30;;;3.50;;
32094;SDS011;18608;53.688;10.748;2023-05-07T10:05:14;7.27;;;3.93;;
32094;SDS011;18608;53.688;10.748;2023-05-07T10:07:40;4.97;;;3.70;;
32094;SDS011;18608;53.688;10.748;2023-05-07T10:10:06;4.80;;;3.20;;
32094;SDS011;18608;53.688;10.748;2023-05-07T10:12:32;2.77;;;2.57;;
32094;SDS011;18608;53.688;10.748;2023-05-07T10:15:05;4.03;;;3.63;;
32094;SDS011;18608;53.688;10.748;2023-05-07T10:17:34;7.43;;;3.60;;
32094;SDS011;18608;53.688;10.748;2023-05-07T10:20:00;3.50;;;3.27;;
32094;SDS011;18608;53.688;10.748;2023-05-07T10:22:26;3.40;;;3.20;;
32094;SDS011;18608;53.688;10.748;2023-05-07T10:24:54;3.43;;;3.13;;
32094;SDS011;18608;53.688;10.748;2023-05-07T10:27:23;3.40;;;3.10;;
32094;SDS011;18608;53.688;10.748;2023-05-07T10:30:04;3.47;;;3.17;;
32094;SDS011;18608;53.688;10.748;2023-05-07T10:32:45;3.60;;;3.30;;
32094;SDS011;18608;53.688;10.748;2023-05-07T10:35:26;4.27;;;3.73;;
32094;SDS011;18608;53.688;10.748;2023-05-07T10:37:56;3.87;;;2.63;;
32094;SDS011;18608;53.688;10.748;2023-05-07T10:40:22;3.60;;;3.30;;
32094;SDS011;18608;53.688;10.748;2023-05-07T10:42:58;3.43;;;2.80;;
32094;SDS011;18608;53.688;10.748;2023-05-07T10:45:25;5.43;;;2.93;;
32094;SDS011;18608;53.688;10.748;2023-05-07T10:48:07;2.93;;;2.73;;
32094;SDS011;18608;53.688;10.748;2023-05-07T10:50:34;2.90;;;2.70;;
32094;SDS011;18608;53.688;10.748;2023-05-07T10:55:48;3.50;;;2.33;;
32094;SDS011;18608;53.688;10.748;2023-05-07T11:00:46;2.20;;;2.03;;
32094;SDS011;18608;53.688;10.748;2023-05-07T11:03:13;5.53;;;2.20;;
32094;SDS011;18608;53.688;10.748;2023-05-07T11:05:40;2.13;;;2.00;;
32094;SDS011;18608;53.688;10.748;2023-05-07T11:08:07;2.67;;;2.50;;
32094;SDS011;18608;53.688;10.748;2023-05-07T11:10:49;3.13;;;2.83;;
32094;SDS011;18608;53.688;10.748;2023-05-07T11:13:15;3.00;;;2.47;;
32094;SDS011;18608;53.688;10.748;2023-05-07T11:15:42;2.77;;;2.57;;
32094;SDS011;18608;53.688;10.748;2023-05-07T11:18:10;2.83;;;2.57;;
32094;SDS011;18608;53.688;10.748;2023-05-07T11:26:03;4.10;;;2.67;;
32094;SDS011;18608;53.688;10.748;2023-05-07T11:28:31;2.43;;;2.27;;
32094;SDS011;18608;53.688;10.748;2023-05-07T11:31:01;3.00;;;2.70;;
32094;SDS011;18608;53.688;10.748;2023-05-07T11:33:28;2.33;;;2.23;;
32094;SDS011;18608;53.688;10.748;2023-05-07T11:35:55;2.50;;;2.40;;
32094;SDS011;18608;53.688;10.748;2023-05-07T11:38:21;4.10;;;2.67;;
32094;SDS011;18608;53.688;10.748;2023-05-07T11:40:50;2.50;;;2.30;;
32094;SDS011;18608;53.688;10.748;2023-05-07T11:43:25;3.67;;;2.47;;
32094;SDS011;18608;53.688;10.748;2023-05-07T11:45:51;3.87;;;2.10;;
32094;SDS011;18608;53.688;10.748;2023-05-07T11:48:17;5.33;;;2.63;;
32094;SDS011;18608;53.688;10.748;2023-05-07T11:50:52;3.17;;;2.63;;
32094;SDS011;18608;53.688;10.748;2023-05-07T11:53:25;2.53;;;2.33;;
32094;SDS011;18608;53.688;10.748;2023-05-07T11:55:55;2.80;;;2.60;;
32094;SDS011;18608;53.688;10.748;2023-05-07T11:58:21;3.77;;;2.73;;
32094;SDS011;18608;53.688;10.748;2023-05-07T12:00:52;2.43;;;2.33;;
32094;SDS011;18608;53.688;10.748;2023-05-07T12:03:19;2.30;;;2.10;;
32094;SDS011;18608;53.688;10.748;2023-05-07T12:05:45;6.47;;;2.97;;
32094;SDS011;18608;53.688;10.748;2023-05-07T12:08:15;3.50;;;3.07;;
32094;SDS011;18608;53.688;10.748;2023-05-07T12:10:45;2.90;;;2.70;;
32094;SDS011;18608;53.688;10.748;2023-05-07T12:13:16;1.93;;;1.77;;
32094;SDS011;18608;53.688;10.748;2023-05-07T12:15:46;2.53;;;2.33;;
32094;SDS011;18608;53.688;10.748;2023-05-07T12:18:12;3.20;;;2.90;;
32094;SDS011;18608;53.688;10.748;2023-05-07T12:20:38;3.73;;;2.20;;
32094;SDS011;18608;53.688;10.748;2023-05-07T12:23:04;2.20;;;2.00;;
32094;SDS011;18608;53.688;10.748;2023-05-07T12:25:41;2.20;;;2.10;;
32094;SDS011;18608;53.688;10.748;2023-05-07T12:28:15;2.80;;;1.97;;
32094;SDS011;18608;53.688;10.748;2023-05-07T12:30:42;2.60;;;2.50;;
32094;SDS011;18608;53.688;10.748;2023-05-07T12:33:09;4.23;;;2.40;;
32094;SDS011;18608;53.688;10.748;2023-05-07T12:35:36;3.53;;;1.97;;
32094;SDS011;18608;53.688;10.748;2023-05-07T12:38:07;2.00;;;1.90;;
32094;SDS011;18608;53.688;10.748;2023-05-07T12:40:43;2.77;;;2.50;;
32094;SDS011;18608;53.688;10.748;2023-05-07T12:43:33;1.67;;;1.57;;
32094;SDS011;18608;53.688;10.748;2023-05-07T12:46:00;3.33;;;1.57;;
32094;SDS011;18608;53.688;10.748;2023-05-07T12:48:28;4.40;;;2.40;;
32094;SDS011;18608;53.688;10.748;2023-05-07T12:50:54;2.20;;;2.10;;
32094;SDS011;18608;53.688;10.748;2023-05-07T12:53:21;5.43;;;1.80;;
32094;SDS011;18608;53.688;10.748;2023-05-07T12:55:49;1.97;;;1.77;;
32094;SDS011;18608;53.688;10.748;2023-05-07T13:00:55;2.07;;;1.93;;
32094;SDS011;18608;53.688;10.748;2023-05-07T13:03:28;2.07;;;1.90;;
32094;SDS011;18608;53.688;10.748;2023-05-07T13:05:55;3.50;;;2.07;;
32094;SDS011;18608;53.688;10.748;2023-05-07T13:08:27;2.30;;;2.10;;
32094;SDS011;18608;53.688;10.748;2023-05-07T13:11:01;3.13;;;2.93;;
32094;SDS011;18608;53.688;10.748;2023-05-07T13:13:29;3.13;;;2.37;;
32094;SDS011;18608;53.688;10.748;2023-05-07T13:16:02;1.83;;;1.73;;
32094;SDS011;18608;53.688;10.748;2023-05-07T13:18:31;2.20;;;2.10;;
32094;SDS011;18608;53.688;10.748;2023-05-07T13:20:58;5.10;;;2.40;;
32094;SDS011;18608;53.688;10.748;2023-05-07T13:23:24;2.70;;;2.50;;
32094;SDS011;18608;53.688;10.748;2023-05-07T13:25:50;2.00;;;1.90;;
32094;SDS011;18608;53.688;10.748;2023-05-07T13:28:18;2.03;;;1.93;;
32094;SDS011;18608;53.688;10.748;2023-05-07T13:30:45;2.20;;;2.10;;
32094;SDS011;18608;53.688;10.748;2023-05-07T13:33:11;3.00;;;2.80;;
32094;SDS011;18608;53.688;10.748;2023-05-07T13:35:37;2.87;;;2.47;;
32094;SDS011;18608;53.688;10.748;2023-05-07T13:38:03;4.23;;;2.43;;
32094;SDS011;18608;53.688;10.748;2023-05-07T13:40:30;4.80;;;2.07;;
32094;SDS011;18608;53.688;10.748;2023-05-07T13:42:57;4.07;;;2.00;;
32094;SDS011;18608;53.688;10.748;2023-05-07T13:45:23;2.83;;;2.60;;
32094;SDS011;18608;53.688;10.748;2023-05-07T13:47:50;5.87;;;2.33;;
32094;SDS011;18608;53.688;10.748;2023-05-07T13:50:16;3.33;;;2.50;;
32094;SDS011;18608;53.688;10.748;2023-05-07T13:52:43;2.50;;;2.17;;
32094;SDS011;18608;53.688;10.748;2023-05-07T13:55:19;2.30;;;2.20;;
32094;SDS011;18608;53.688;10.748;2023-05-07T13:57:46;3.00;;;2.63;;
32094;SDS011;18608;53.688;10.748;2023-05-07T14:00:12;3.13;;;2.70;;
32094;SDS011;18608;53.688;10.748;2023-05-07T14:02:39;2.27;;;2.17;;
32094;SDS011;18608;53.688;10.748;2023-05-07T14:05:05;2.17;;;2.07;;
32094;SDS011;18608;53.688;10.748;2023-05-07T14:07:31;2.83;;;2.63;;
32094;SDS011;18608;53.688;10.748;2023-05-07T14:09:57;3.40;;;2.30;;
32094;SDS011;18608;53.688;10.748;2023-05-07T14:12:23;3.13;;;2.40;;
32094;SDS011;18608;53.688;10.748;2023-05-07T14:14:49;3.77;;;2.87;;
32094;SDS011;18608;53.688;10.748;2023-05-07T14:17:16;2.90;;;2.30;;
32094;SDS011;18608;53.688;10.748;2023-05-07T14:19:42;3.43;;;3.17;;
32094;SDS011;18608;53.688;10.748;2023-05-07T14:22:08;2.43;;;2.33;;
32094;SDS011;18608;53.688;10.748;2023-05-07T14:24:34;1.97;;;1.87;;
32094;SDS011;18608;53.688;10.748;2023-05-07T14:27:00;4.10;;;2.20;;
32094;SDS011;18608;53.688;10.748;2023-05-07T14:29:27;2.13;;;2.00;;
32094;SDS011;18608;53.688;10.748;2023-05-07T14:31:53;2.00;;;1.90;;
32094;SDS011;18608;53.688;10.748;2023-05-07T14:34:19;4.43;;;2.77;;
32094;SDS011;18608;53.688;10.748;2023-05-07T14:36:45;2.10;;;2.00;;
32094;SDS011;18608;53.688;10.748;2023-05-07T14:39:11;4.00;;;3.10;;